createdAt,value
2023-03-03T00:12:57.586Z,0.30
2023-03-03T00:18:00.342Z,0.30
2023-03-03T00:23:31.792Z,0.30
2023-03-03T00:28:50.564Z,0.40
2023-03-03T00:33:55.603Z,0.40
2023-03-03T00:39:15.907Z,0.40
2023-03-03T00:44:25.790Z,0.20
2023-03-03T00:49:28.408Z,0.20
2023-03-03T01:04:37.007Z,0.30
2023-03-03T01:09:39.648Z,0.20
2023-03-03T01:14:43.326Z,0.00
2023-03-03T01:19:50.384Z,0.30
2023-03-03T01:29:57.787Z,0.30
2023-03-03T01:35:01.828Z,0.20
2023-03-03T01:40:17.129Z,0.30
2023-03-03T01:45:24.692Z,0.30
2023-03-03T01:50:43.617Z,0.30
2023-03-03T02:00:53.500Z,0.30
2023-03-03T02:06:03.586Z,0.20
2023-03-03T02:11:07.093Z,0.20
2023-03-03T02:21:14.442Z,0.30
2023-03-03T02:26:18.816Z,0.30
2023-03-03T02:31:24.742Z,0.30
2023-03-03T02:36:30.987Z,0.30
2023-03-03T02:41:49.080Z,0.30
2023-03-03T02:46:53.415Z,0.20
2023-03-03T02:57:00.980Z,0.10
2023-03-03T03:07:06.549Z,0.20
2023-03-03T03:12:12.337Z,0.20
2023-03-03T03:22:20.072Z,0.10
2023-03-03T03:27:23.531Z,-0.10
2023-03-03T03:32:27.655Z,0.00
2023-03-03T03:47:36.952Z,0.00
2023-03-03T04:02:46.897Z,0.10
2023-03-03T04:18:04.380Z,0.20
2023-03-03T04:58:32.545Z,0.30
2023-03-03T05:33:55.138Z,0.20
2023-03-03T05:49:03.606Z,0.40
2023-03-03T06:04:12.061Z,0.50
2023-03-03T06:24:25.378Z,0.90
2023-03-03T06:59:52.024Z,0.40
2023-03-03T07:04:56.680Z,0.50
2023-03-03T07:09:59.094Z,0.60
2023-03-03T07:15:17.355Z,0.70
2023-03-03T07:25:43.532Z,0.90
2023-03-03T07:40:55.086Z,0.60
2023-03-03T07:46:34.987Z,0.90
2023-03-03T07:51:42.006Z,1.00
2023-03-03T08:01:52.838Z,1.30
2023-03-03T08:07:03.183Z,1.50
2023-03-03T08:12:40.188Z,1.70
2023-03-03T08:17:43.352Z,1.80
2023-03-03T08:27:48.714Z,1.80
2023-03-03T08:48:02.746Z,2.00
2023-03-03T08:53:07.787Z,1.60
2023-03-03T08:58:10.706Z,1.80
2023-03-03T09:08:16.473Z,2.40
2023-03-03T09:13:20.094Z,2.50
2023-03-03T09:18:36.508Z,2.50
2023-03-03T09:23:41.683Z,3.30
2023-03-03T09:28:44.193Z,3.30
2023-03-03T09:33:49.941Z,3.50
2023-03-03T09:38:53.500Z,3.40
2023-03-03T09:43:56.250Z,3.40
2023-03-03T09:49:04.657Z,2.90
2023-03-03T09:54:13.104Z,3.00
2023-03-03T09:59:27.960Z,3.10
2023-03-03T10:04:49.317Z,3.40
2023-03-03T10:10:12.895Z,3.50
2023-03-03T10:15:34.124Z,3.50
2023-03-03T10:21:01.293Z,3.20
2023-03-03T10:26:45.783Z,3.10
2023-03-03T10:31:56.682Z,3.20
2023-03-03T10:37:14.226Z,3.20
2023-03-03T10:42:26.082Z,3.40
2023-03-03T10:47:42.711Z,3.40
2023-03-03T10:52:56.362Z,3.10
2023-03-03T10:58:47.259Z,3.00
2023-03-03T11:04:07.980Z,2.90
2023-03-03T11:09:16.287Z,3.10
2023-03-03T11:14:24.448Z,3.00
2023-03-03T11:19:52.773Z,1.30
2023-03-03T11:30:07.640Z,2.70
2023-03-03T11:35:29.068Z,3.00
2023-03-03T11:40:40.466Z,2.90
2023-03-03T11:45:55.158Z,2.80
2023-03-03T11:51:11.771Z,2.60
2023-03-03T11:56:23.057Z,2.60
2023-03-03T12:01:58.101Z,2.50
2023-03-03T12:07:12.955Z,2.20
2023-03-03T12:12:40.915Z,2.30
2023-03-03T12:18:24.697Z,2.40
2023-03-03T12:23:30.070Z,2.20
2023-03-03T12:28:40.190Z,2.00
2023-03-03T12:33:51.599Z,2.20
2023-03-03T12:39:00.866Z,2.00
2023-03-03T12:44:16.840Z,2.10
2023-03-03T12:49:20.250Z,1.90
2023-03-03T12:54:43.635Z,1.70
2023-03-03T13:05:07.360Z,1.60
2023-03-03T13:10:35.174Z,1.30
2023-03-03T13:16:03.029Z,1.30
2023-03-03T13:21:17.593Z,1.50
2023-03-03T13:26:31.874Z,1.50
2023-03-03T13:31:42.167Z,1.60
2023-03-03T13:36:54.002Z,1.60
2023-03-03T13:47:44.294Z,1.40
2023-03-03T13:58:28.618Z,1.40
2023-03-03T14:04:00.135Z,1.30
2023-03-03T14:09:26.428Z,1.20
2023-03-03T14:14:42.094Z,1.30
2023-03-03T14:19:48.817Z,1.00
2023-03-03T14:25:00.260Z,1.00
2023-03-03T14:30:30.846Z,1.10
2023-03-03T14:35:38.271Z,1.00
2023-03-03T14:40:45.572Z,1.00
2023-03-03T14:45:48.414Z,0.90
2023-03-03T14:50:58.352Z,0.70
2023-03-03T14:56:36.427Z,0.80
2023-03-03T15:01:39.501Z,0.90
2023-03-03T15:06:50.701Z,0.90
2023-03-03T15:11:54.782Z,0.80
2023-03-03T15:17:13.888Z,0.60
2023-03-03T15:22:37.414Z,0.50
2023-03-03T15:27:49.477Z,4.00
2023-03-03T15:33:10.923Z,0.50
2023-03-03T15:38:18.947Z,0.60
2023-03-03T15:43:32.176Z,0.50
2023-03-03T15:48:56.528Z,0.50
2023-03-03T15:54:14.139Z,0.40
2023-03-03T15:59:37.505Z,0.40
2023-03-03T16:04:48.225Z,0.50
2023-03-03T16:10:12.178Z,0.40
2023-03-03T16:15:27.013Z,0.40
2023-03-03T16:20:43.256Z,0.50
2023-03-03T16:26:20.338Z,0.50
2023-03-03T16:31:34.668Z,0.40
2023-03-03T16:36:49.370Z,0.40
2023-03-03T16:42:07.853Z,0.40
2023-03-03T16:47:39.423Z,0.40
2023-03-03T16:52:48.480Z,0.30
2023-03-03T16:58:15.472Z,0.40
2023-03-03T17:03:44.539Z,0.40
2023-03-03T17:08:50.149Z,0.30
2023-03-03T17:14:17.657Z,0.40
2023-03-03T17:19:44.389Z,0.50
2023-03-03T17:25:11.127Z,0.50
2023-03-03T17:30:38.367Z,0.40
2023-03-03T17:35:46.747Z,0.40
2023-03-03T17:41:10.652Z,0.30
2023-03-03T17:46:29.501Z,0.30
2023-03-03T17:57:17.534Z,0.30
2023-03-03T18:02:32.318Z,0.40
2023-03-03T18:08:01.512Z,0.40
2023-03-03T18:13:39.265Z,0.40
2023-03-03T18:19:05.668Z,0.50
2023-03-03T18:24:30.875Z,0.60
2023-03-03T18:34:42.146Z,0.60
2023-03-03T18:40:13.573Z,0.50
2023-03-03T18:45:23.029Z,0.60
2023-03-03T18:50:34.337Z,0.70
2023-03-03T18:55:51.081Z,0.70
2023-03-03T19:00:56.430Z,0.70
2023-03-03T19:11:05.292Z,0.90
2023-03-03T19:16:24.873Z,0.90
2023-03-03T19:21:34.122Z,0.90
2023-03-03T19:26:51.586Z,0.90
2023-03-03T19:32:35.361Z,1.00
2023-03-03T19:43:00.679Z,0.90
2023-03-03T19:48:51.757Z,0.90
2023-03-03T19:54:08.471Z,0.80
2023-03-03T19:59:39.379Z,0.90
2023-03-03T20:05:00.025Z,0.90
2023-03-03T20:10:28.573Z,1.00
2023-03-03T20:15:46.053Z,0.90
2023-03-03T20:21:16.522Z,0.90
2023-03-03T20:26:25.987Z,1.00
2023-03-03T20:31:45.079Z,1.00
2023-03-03T20:36:53.534Z,1.00
2023-03-03T20:42:07.802Z,1.00
2023-03-03T20:52:40.559Z,1.00
2023-03-03T20:58:10.232Z,1.00
2023-03-03T21:03:34.413Z,1.00
2023-03-03T21:08:41.364Z,1.00
2023-03-03T21:13:51.986Z,0.90
2023-03-03T21:19:03.357Z,0.90
2023-03-03T21:24:07.600Z,0.80
2023-03-03T21:29:29.324Z,0.90
2023-03-03T21:34:34.501Z,0.90
2023-03-03T21:39:44.616Z,-1.80
2023-03-03T21:44:51.792Z,0.90
2023-03-03T21:49:54.315Z,0.90
2023-03-03T21:54:57.067Z,0.90
2023-03-03T22:05:03.783Z,0.80
2023-03-03T22:20:15.400Z,0.70
2023-03-03T22:35:24.138Z,0.80
2023-03-03T23:00:41.847Z,0.70
2023-03-03T23:10:51.376Z,0.80
2023-03-03T23:15:53.920Z,0.80
2023-03-03T23:25:59.474Z,0.70
2023-03-03T23:31:02.114Z,0.80
2023-03-03T23:46:11.729Z,0.50
